Robins Air Force Base
KWRB : now visible

Airfield :











YOU CAN JOIN US ON...

 
LOGIN :

Register | Disclaimer

   EN    FR    IT 

 









Legend :    VFR   Marginal VFR   IFR   Intensive IFR   Very Intensive IFR
Visi :
Ceiling :
>= 8 km
>= 3000ft
5 to 8 km
1000 to 3000 ft
1500m to 5 km
500 to 1000 ft
800 to 1500m
200 to 500 ft
< 800m
< 200 ft
Symbols :   Thunderstorms  Fog  Heavy snow  Heavy precipitations  Wind > 20 kt






- Airport Elevation : 294 ft


KWRB - Robins Air Force Base

CURRENT METAR :
  • 311156Z 05005KT 10SM CLR 10/06 A3029 RMK AO2A SLP260 T00980061 10110 20098 52018

EXPIRED METARs :
  • 311056Z 07006KT 10SM CLR 10/07 A3027 RMK AO2A SLP253 T01020065
  • 310956Z AUTO 05004KT 10SM CLR 11/07 A3025 RMK AO2 SLP246 T01050074

TAF TAF KWRB
Valid from the 31 at 05:00 until the 01 at 11:00 UTC


310500Z 3105/0111 35006KT 9999 SKC QNH3017INS
BECMG 3111/3112 05009KT 9999 FEW025 QNH3029INS
BECMG 3117/3118 07010G15KT 9999 BKN040 QNH3023INS
BECMG 3123/3124 06006KT 9999 BKN025 QNH3024INS
BECMG 0105/0106 VRB06KT 9999 BKN017 QNH3018INS TX18/3120Z TN09/3111Z
KZTL FIR / North America



MET'MAP, your aeronautical weather chart ! - Copyright ORBIFLY December 2007 - Disclaimer

ORBIFLY MET'MAP TEAM :

Programming & Development : Alexandra Zaïnal
Concept & original design : Baudouin d'Aumeries
Assistance for programming : Marc-Olivier Méhu
Technical & hardware support : Manuel Goepfert

Contact : metmap@orbifly.com




SOURCES & CREDITS :

   NOAA       Earth
Advisory